Time;durP1;ratioP1;P1;durP2;ratioP2;P2;SDS_P1;SDS_P2;PMS_P1;PMS_P2;Temp;Humidity;BMP_temperature;BMP_pressure;BME280_temperature;BME280_humidity;BME280_pressure;Samples;Min_cycle;Max_cycle;Signal;HPM_P1;HPM_P2
2023/08/03 00:00:38;;;;;;;;;;;;;;;21.93;59.77;98964.22;5060847;28;4229;-78
2023/08/03 00:03:07;;;;;;;;;;;;;;;21.94;59.80;98965.66;5061390;28;4094;-78
2023/08/03 00:05:33;;;;;;;;;;;;;;;21.94;59.70;98974.31;5059461;28;4087;-74
2023/08/03 00:08:00;;;;;;;;;;;;;;;21.93;59.78;98970.00;5060652;28;4058;-77
2023/08/03 00:10:26;;;;;;;;;;;;;;;21.94;59.59;98965.66;5043719;28;4198;-78
2023/08/03 00:12:53;;;;;;;;;;;;;;;21.95;60.08;98967.13;5060088;28;4029;-78
2023/08/03 00:15:19;;;;;;;;;;;;;;;21.94;59.62;98966.41;5062148;28;3983;-78
2023/08/03 00:17:45;;;;;;;;;;;;;;;21.94;60.03;98971.44;5060559;28;4434;-78
2023/08/03 00:20:12;;;;;;;;;;;;;;;21.94;60.03;98977.19;5060433;28;3952;-78
2023/08/03 00:22:38;;;;;;;;;;;;;;;21.93;59.88;98970.00;5060693;28;3918;-77
2023/08/03 00:25:05;;;;;;;;;;;;;;;21.93;59.88;98987.28;5061033;28;4097;-78
2023/08/03 00:27:31;;;;;;;;;;;;;;;21.94;59.78;98982.97;5061853;28;4087;-78
2023/08/03 00:29:58;;;;;;;;;;;;;;;21.94;59.82;98985.84;5060561;28;4077;-78
2023/08/03 00:32:24;;;;;;;;;;;;;;;21.94;59.71;98985.84;5036808;28;4371;-78
2023/08/03 00:34:51;;;;;;;;;;;;;;;21.94;59.80;98982.97;5060449;28;4767;-76
2023/08/03 00:37:17;;;;;;;;;;;;;;;21.93;59.92;98987.28;5043281;28;3970;-78
2023/08/03 00:39:43;;;;;;;;;;;;;;;21.94;59.78;98994.47;5059718;28;4014;-78
2023/08/03 00:42:10;;;;;;;;;;;;;;;21.93;59.97;98993.75;5061276;28;4054;-78
2023/08/03 00:44:37;;;;;;;;;;;;;;;21.93;59.86;98981.53;5032204;28;4385;-78
2023/08/03 00:47:03;;;;;;;;;;;;;;;21.92;60.01;98983.69;5061186;28;3932;-78
2023/08/03 00:49:30;;;;;;;;;;;;;;;21.93;59.68;98987.28;5042692;28;4152;-77
2023/08/03 00:51:57;;;;;;;;;;;;;;;21.94;59.87;98985.84;5041982;28;4756;-78
2023/08/03 00:54:23;;;;;;;;;;;;;;;21.92;59.67;98989.44;5060478;28;4243;-78
2023/08/03 00:56:49;;;;;;;;;;;;;;;21.92;59.95;98998.09;5060884;28;4072;-78
2023/08/03 00:59:16;;;;;;;;;;;;;;;21.93;60.00;98995.94;5033447;28;4224;-78
2023/08/03 01:01:42;;;;;;;;;;;;;;;21.92;60.06;98994.47;5033272;28;4284;-78
2023/08/03 01:04:09;;;;;;;;;;;;;;;21.92;59.78;99000.22;5043084;28;4196;-76
2023/08/03 01:06:35;;;;;;;;;;;;;;;21.92;59.94;98989.44;5059831;28;4523;-78
2023/08/03 01:09:03;;;;;;;;;;;;;;;21.92;60.02;98997.34;5058619;28;4348;-78
2023/08/03 01:11:30;;;;;;;;;;;;;;;21.92;59.75;99003.84;5032332;28;4349;-78
2023/08/03 01:13:56;;;;;;;;;;;;;;;21.92;60.02;99006.72;5059598;28;4271;-78
2023/08/03 01:16:23;;;;;;;;;;;;;;;21.92;60.02;99006.00;5059981;28;4126;-78
2023/08/03 01:18:50;;;;;;;;;;;;;;;21.91;59.75;99011.03;5058669;28;4273;-78
2023/08/03 01:21:17;;;;;;;;;;;;;;;21.93;59.86;99010.34;5041757;28;4273;-78
2023/08/03 01:23:43;;;;;;;;;;;;;;;21.91;59.72;99019.69;5059397;28;5241;-78
2023/08/03 01:26:10;;;;;;;;;;;;;;;21.90;59.66;99020.41;5033741;28;3927;-78
2023/08/03 01:28:36;;;;;;;;;;;;;;;21.92;59.88;99031.91;5037187;28;4077;-78
2023/08/03 01:31:03;;;;;;;;;;;;;;;21.92;59.91;99037.69;5055543;28;4055;-78
2023/08/03 01:33:29;;;;;;;;;;;;;;;21.91;59.83;99025.44;5059664;28;4025;-77
2023/08/03 01:35:56;;;;;;;;;;;;;;;21.91;59.68;99030.47;5059101;28;3936;-78
2023/08/03 01:38:22;;;;;;;;;;;;;;;21.90;59.45;99031.94;5059232;28;5677;-78
2023/08/03 01:40:48;;;;;;;;;;;;;;;21.91;59.74;99033.38;5058848;28;4082;-78
2023/08/03 01:43:15;;;;;;;;;;;;;;;21.92;59.75;99043.44;5059273;28;5038;-78
2023/08/03 01:45:41;;;;;;;;;;;;;;;21.91;59.51;99042.00;5032788;28;4354;-78
2023/08/03 01:48:08;;;;;;;;;;;;;;;21.91;59.59;99044.88;5059489;28;4106;-78
2023/08/03 01:50:34;;;;;;;;;;;;;;;21.92;59.82;99054.97;5059890;28;4101;-76
2023/08/03 01:53:00;;;;;;;;;;;;;;;21.90;59.74;99057.84;5058499;28;4010;-78
2023/08/03 01:55:27;;;;;;;;;;;;;;;21.91;59.60;99059.28;5060704;28;4176;-78
2023/08/03 01:57:53;;;;;;;;;;;;;;;21.91;59.95;99060.00;5058430;28;4041;-77
2023/08/03 02:00:20;;;;;;;;;;;;;;;21.91;59.87;99056.41;5048532;28;4292;-78
2023/08/03 02:02:46;;;;;;;;;;;;;;;21.90;59.72;99055.69;5058067;28;4133;-77
2023/08/03 02:05:16;;;;;;;;;;;;;;;21.91;59.52;99054.25;5015570;28;3937;-77
2023/08/03 02:07:44;;;;;;;;;;;;;;;21.91;59.86;99047.78;5029553;28;4083;-78
2023/08/03 02:10:10;;;;;;;;;;;;;;;21.90;59.81;99049.22;5060832;28;4536;-78
2023/08/03 02:12:38;;;;;;;;;;;;;;;21.90;59.63;99054.97;5031510;28;4013;-77
2023/08/03 02:15:06;;;;;;;;;;;;;;;21.90;59.68;99057.84;5058343;28;4000;-78
2023/08/03 02:17:32;;;;;;;;;;;;;;;21.90;59.96;99049.94;5045426;28;4289;-78
2023/08/03 02:19:59;;;;;;;;;;;;;;;21.92;59.60;99054.97;5033485;28;5464;-78
2023/08/03 02:22:25;;;;;;;;;;;;;;;21.90;60.04;99054.97;5062796;28;3939;-78
2023/08/03 02:24:52;;;;;;;;;;;;;;;21.91;59.69;99056.41;5062469;28;4313;-78
2023/08/03 02:27:18;;;;;;;;;;;;;;;21.90;59.72;99058.56;5063013;28;3995;-78
2023/08/03 02:29:44;;;;;;;;;;;;;;;21.91;59.76;99053.53;5062966;28;4124;-78
2023/08/03 02:32:11;;;;;;;;;;;;;;;21.90;59.75;99058.56;5044790;28;4157;-77
2023/08/03 02:34:38;;;;;;;;;;;;;;;21.90;59.77;99063.63;5060526;28;4263;-77
2023/08/03 02:37:05;;;;;;;;;;;;;;;21.90;59.68;99049.22;5062776;28;4032;-78
2023/08/03 02:39:32;;;;;;;;;;;;;;;21.90;59.77;99052.09;5045425;28;3946;-77
2023/08/03 02:41:59;;;;;;;;;;;;;;;21.89;59.77;99045.59;5045831;28;5799;-77
2023/08/03 02:44:34;;;;;;;;;;;;;;;21.90;59.67;99046.31;5060134;28;4851;-77
2023/08/03 02:47:00;;;;;;;;;;;;;;;21.90;59.61;99046.31;5062201;28;4079;-77
2023/08/03 02:49:27;;;;;;;;;;;;;;;21.90;59.71;99043.44;5062581;28;4043;-78
2023/08/03 02:51:53;;;;;;;;;;;;;;;21.89;59.74;99041.97;5044234;28;4116;-78
2023/08/03 02:54:29;;;;;;;;;;;;;;;21.89;59.64;99045.59;5050109;28;4086;-78
2023/08/03 02:56:56;;;;;;;;;;;;;;;21.90;59.84;99052.09;5044278;28;4092;-78
2023/08/03 02:59:23;;;;;;;;;;;;;;;21.90;59.61;99044.16;5033780;28;4778;-78
2023/08/03 03:01:49;;;;;;;;;;;;;;;21.89;59.63;99044.88;5050125;28;5360;-78
2023/08/03 03:04:19;;;;;;;;;;;;;;;21.89;59.74;99042.69;5049853;28;4054;-78
2023/08/03 03:06:47;;;;;;;;;;;;;;;21.88;59.85;99032.63;5019326;28;4544;-78
2023/08/03 03:09:13;;;;;;;;;;;;;;;21.89;59.82;99036.22;5062653;28;4067;-77
2023/08/03 03:11:44;;;;;;;;;;;;;;;21.90;59.74;99034.81;5043425;28;4387;-78
2023/08/03 03:14:12;;;;;;;;;;;;;;;21.89;59.94;99048.47;5061240;28;4409;-78
2023/08/03 03:16:38;;;;;;;;;;;;;;;21.90;59.72;99046.31;5043438;28;4485;-78
2023/08/03 03:19:05;;;;;;;;;;;;;;;21.88;59.93;99037.66;5062225;28;4497;-78
2023/08/03 03:21:31;;;;;;;;;;;;;;;21.88;59.53;99046.31;5034565;28;3937;-78
2023/08/03 03:23:58;;;;;;;;;;;;;;;21.89;59.90;99039.81;5060569;28;4166;-78
2023/08/03 03:26:24;;;;;;;;;;;;;;;21.88;59.98;99046.31;5043688;28;4180;-77
2023/08/03 03:28:51;;;;;;;;;;;;;;;21.87;59.49;99048.44;5060123;28;4069;-78
2023/08/03 03:31:23;;;;;;;;;;;;;;;21.88;59.72;99040.53;5060093;28;4102;-78
2023/08/03 03:33:50;;;;;;;;;;;;;;;21.88;59.77;99049.91;5060176;28;4181;-78
2023/08/03 03:36:17;;;;;;;;;;;;;;;21.88;59.64;99040.53;5043881;28;4128;-78
2023/08/03 03:38:43;;;;;;;;;;;;;;;21.88;59.58;99029.03;5060340;28;4105;-78
2023/08/03 03:41:09;;;;;;;;;;;;;;;21.89;59.63;99027.56;5061940;28;4018;-78
2023/08/03 03:43:40;;;;;;;;;;;;;;;21.88;59.59;99026.13;5035103;28;4069;-78
2023/08/03 03:46:07;;;;;;;;;;;;;;;21.88;59.59;99031.91;5043525;28;3900;-77
2023/08/03 03:48:35;;;;;;;;;;;;;;;21.88;59.84;99034.78;5050136;28;4281;-77
2023/08/03 03:51:03;;;;;;;;;;;;;;;21.88;59.51;99034.78;5060614;28;4081;-77
2023/08/03 03:53:30;;;;;;;;;;;;;;;21.87;59.86;99036.19;5051406;28;3950;-78
2023/08/03 03:56:03;;;;;;;;;;;;;;;21.86;59.96;99034.75;5043171;28;4982;-78
2023/08/03 03:58:29;;;;;;;;;;;;;;;21.87;59.61;99030.44;5033232;28;4054;-78
2023/08/03 04:00:55;;;;;;;;;;;;;;;21.87;59.73;99030.44;5046788;28;4046;-77
2023/08/03 04:03:24;;;;;;;;;;;;;;;21.87;59.49;99036.19;5060035;28;4281;-78
2023/08/03 04:05:51;;;;;;;;;;;;;;;21.87;59.95;99033.31;5058700;28;4503;-77
2023/08/03 04:08:17;;;;;;;;;;;;;;;21.88;59.62;99023.97;5059976;28;4205;-78
2023/08/03 04:10:44;;;;;;;;;;;;;;;21.87;59.68;99028.28;5059621;28;4139;-77
2023/08/03 04:13:11;;;;;;;;;;;;;;;21.87;59.82;99034.03;5050319;28;5042;-78
2023/08/03 04:15:37;;;;;;;;;;;;;;;21.86;59.56;99023.22;5047366;28;4136;-78
2023/08/03 04:18:04;;;;;;;;;;;;;;;21.87;59.60;99024.66;5031622;28;4031;-77
2023/08/03 04:20:33;;;;;;;;;;;;;;;21.87;59.41;99027.56;5051426;28;4397;-77
2023/08/03 04:22:59;;;;;;;;;;;;;;;21.87;59.89;99036.91;5032022;28;5640;-77
2023/08/03 04:25:27;;;;;;;;;;;;;;;21.88;59.51;99043.41;5020092;28;4073;-77
2023/08/03 04:28:00;;;;;;;;;;;;;;;21.86;59.54;99035.47;5050200;28;4030;-77
2023/08/03 04:30:31;;;;;;;;;;;;;;;21.86;59.66;99032.59;5019908;28;4134;-77
2023/08/03 04:32:58;;;;;;;;;;;;;;;21.85;59.57;99030.41;5057984;28;4134;-78
2023/08/03 04:35:26;;;;;;;;;;;;;;;21.86;59.90;99049.16;5042338;28;4179;-77
2023/08/03 04:38:02;;;;;;;;;;;;;;;21.85;59.51;99036.16;5059184;28;4407;-77
2023/08/03 04:40:30;;;;;;;;;;;;;;;21.84;59.64;99031.84;5033004;28;4087;-78
2023/08/03 04:42:57;;;;;;;;;;;;;;;21.84;59.87;99032.56;5058094;28;4134;-77
2023/08/03 04:45:23;;;;;;;;;;;;;;;21.84;59.69;99023.91;5059746;28;3934;-78
2023/08/03 04:47:49;;;;;;;;;;;;;;;21.85;59.47;99036.16;5041722;28;4031;-77
2023/08/03 04:50:19;;;;;;;;;;;;;;;21.84;59.56;99026.09;5043171;28;4349;-78
2023/08/03 04:52:45;;;;;;;;;;;;;;;21.83;59.58;99030.38;5056700;28;4079;-78
2023/08/03 04:55:12;;;;;;;;;;;;;;;21.86;59.49;99029.00;5031254;28;4045;-78
2023/08/03 04:57:39;;;;;;;;;;;;;;;21.86;59.85;99020.34;5059392;28;4017;-76
2023/08/03 05:00:07;;;;;;;;;;;;;;;21.84;59.52;99023.19;5058293;28;4087;-78
2023/08/03 05:02:33;;;;;;;;;;;;;;;21.84;59.86;99032.56;5060787;28;4043;-78
2023/08/03 05:05:00;;;;;;;;;;;;;;;21.85;59.87;99021.75;5032086;28;4131;-78
2023/08/03 05:07:27;;;;;;;;;;;;;;;21.84;59.57;99014.56;5049128;28;4302;-77
2023/08/03 05:09:54;;;;;;;;;;;;;;;21.87;59.74;99004.50;5030821;28;4028;-78
2023/08/03 05:12:21;;;;;;;;;;;;;;;21.85;59.43;99013.88;5033415;28;4067;-77
2023/08/03 05:14:48;;;;;;;;;;;;;;;21.85;59.72;99016.00;5033302;28;4113;-77
2023/08/03 05:17:15;;;;;;;;;;;;;;;21.83;59.76;99016.72;5058906;28;4488;-77
2023/08/03 05:19:41;;;;;;;;;;;;;;;21.86;59.81;99023.94;5059020;28;3994;-77
2023/08/03 05:22:07;;;;;;;;;;;;;;;21.85;59.60;99016.00;5059239;28;4193;-77
2023/08/03 05:24:34;;;;;;;;;;;;;;;21.84;59.76;99009.53;5059434;28;4071;-77
2023/08/03 05:27:01;;;;;;;;;;;;;;;21.84;59.62;99017.44;5059966;28;3940;-77
2023/08/03 05:29:29;;;;;;;;;;;;;;;21.83;59.76;99024.63;5059406;28;4604;-77
2023/08/03 05:31:56;;;;;;;;;;;;;;;21.86;59.63;99023.22;5047878;28;4078;-77
2023/08/03 05:34:22;;;;;;;;;;;;;;;21.86;59.80;99029.00;5059989;28;4178;-77
2023/08/03 05:36:50;;;;;;;;;;;;;;;21.85;59.76;99021.75;5031887;28;4066;-77
2023/08/03 05:39:16;;;;;;;;;;;;;;;21.86;59.37;99029.00;5060100;28;3960;-77
2023/08/03 05:41:43;;;;;;;;;;;;;;;21.84;59.42;99026.09;5058434;28;4297;-76
2023/08/03 05:44:13;;;;;;;;;;;;;;;21.84;59.80;99031.84;5030723;28;3922;-77
2023/08/03 05:46:39;;;;;;;;;;;;;;;21.85;59.62;99027.53;5058849;28;4621;-76
2023/08/03 05:49:07;;;;;;;;;;;;;;;21.84;59.55;99031.84;5059552;28;4422;-78
2023/08/03 05:51:34;;;;;;;;;;;;;;;21.85;59.56;99030.41;5042910;28;4113;-75
2023/08/03 05:54:00;;;;;;;;;;;;;;;21.85;59.59;99027.53;5062984;28;3936;-78
2023/08/03 05:56:26;;;;;;;;;;;;;;;21.85;59.51;99021.75;5035946;28;4487;-67
2023/08/03 05:58:53;;;;;;;;;;;;;;;21.85;59.45;99036.16;5062850;28;4101;-67
2023/08/03 06:01:20;;;;;;;;;;;;;;;21.88;59.40;99037.66;5063975;28;4107;-68
2023/08/03 06:03:46;;;;;;;;;;;;;;;21.87;59.82;99030.44;5063517;28;4208;-68
2023/08/03 06:06:17;;;;;;;;;;;;;;;21.87;59.56;99031.16;5063775;28;4074;-68
2023/08/03 06:08:48;;;;;;;;;;;;;;;21.84;59.39;99034.72;5063057;28;4412;-68
2023/08/03 06:11:15;;;;;;;;;;;;;;;21.84;59.79;99037.59;5062869;28;3941;-68
2023/08/03 06:13:52;;;;;;;;;;;;;;;21.88;59.77;99029.03;5061987;28;4264;-68
2023/08/03 06:16:19;;;;;;;;;;;;;;;21.85;59.47;99033.28;5062878;28;4014;-68
2023/08/03 06:18:47;;;;;;;;;;;;;;;21.87;59.82;99033.31;5036966;28;3925;-68
2023/08/03 06:21:14;;;;;;;;;;;;;;;21.86;59.35;99034.75;5062609;28;4078;-68
2023/08/03 06:23:41;;;;;;;;;;;;;;;21.86;59.32;99037.63;5063122;28;4275;-68
2023/08/03 06:26:08;;;;;;;;;;;;;;;21.87;59.41;99036.19;5036426;28;4158;-68
2023/08/03 06:28:35;;;;;;;;;;;;;;;21.86;59.35;99043.41;5031734;28;4097;-67
2023/08/03 06:31:04;;;;;;;;;;;;;;;21.87;59.57;99047.72;5063538;28;4104;-68
2023/08/03 06:33:30;;;;;;;;;;;;;;;21.87;59.41;99048.44;5062010;28;4054;-68
2023/08/03 06:35:58;;;;;;;;;;;;;;;21.87;59.30;99048.44;5034602;28;4135;-67
2023/08/03 06:38:24;;;;;;;;;;;;;;;21.85;59.59;99050.56;5062243;28;4086;-69
2023/08/03 06:40:51;;;;;;;;;;;;;;;21.87;59.44;99057.09;5061921;28;4055;-68
2023/08/03 06:43:17;;;;;;;;;;;;;;;21.86;59.45;99069.31;5062621;28;4158;-68
2023/08/03 06:45:44;;;;;;;;;;;;;;;21.87;59.55;99053.47;5061444;28;4617;-68
2023/08/03 06:48:10;;;;;;;;;;;;;;;21.87;59.46;99059.25;5062994;28;4175;-68
2023/08/03 06:50:37;;;;;;;;;;;;;;;21.88;59.27;99067.19;5062772;28;4344;-68
2023/08/03 06:53:03;;;;;;;;;;;;;;;21.88;59.32;99067.19;5062058;28;4089;-68
2023/08/03 06:55:30;;;;;;;;;;;;;;;21.88;59.64;99069.34;5062740;28;5388;-68
2023/08/03 06:57:57;;;;;;;;;;;;;;;21.88;59.68;99072.22;5060703;28;4102;-68
2023/08/03 07:00:23;;;;;;;;;;;;;;;21.87;59.55;99076.53;5063162;28;4360;-68
2023/08/03 07:02:50;;;;;;;;;;;;;;;21.87;59.39;99077.25;5061652;28;4205;-68
2023/08/03 07:05:17;;;;;;;;;;;;;;;21.88;59.35;99072.22;5062287;28;4679;-68
2023/08/03 07:07:43;;;;;;;;;;;;;;;21.88;59.37;99084.47;5061437;28;4117;-68
2023/08/03 07:10:10;;;;;;;;;;;;;;;21.87;59.37;99091.66;5061574;28;4089;-68
2023/08/03 07:12:36;;;;;;;;;;;;;;;21.87;59.39;99088.06;5062209;28;4500;-68
2023/08/03 07:15:03;;;;;;;;;;;;;;;21.88;59.42;99104.66;5061838;28;4001;-68
2023/08/03 07:17:30;;;;;;;;;;;;;;;21.88;59.53;99106.81;5061432;28;4050;-68
2023/08/03 07:19:56;;;;;;;;;;;;;;;21.89;59.20;99114.00;5062269;28;4083;-68
2023/08/03 07:22:23;;;;;;;;;;;;;;;21.89;59.25;99114.00;5060874;28;4201;-69
2023/08/03 07:24:49;;;;;;;;;;;;;;;21.88;59.49;99126.97;5062346;28;4123;-68
2023/08/03 07:27:16;;;;;;;;;;;;;;;21.88;59.51;99116.19;5061666;28;4695;-68
2023/08/03 07:29:42;;;;;;;;;;;;;;;21.88;59.32;99124.09;5060696;28;3938;-68
2023/08/03 07:32:09;;;;;;;;;;;;;;;21.88;59.49;99124.09;5061664;28;4268;-68
2023/08/03 07:34:35;;;;;;;;;;;;;;;21.87;59.40;99123.34;5061897;28;4311;-68
2023/08/03 07:37:01;;;;;;;;;;;;;;;21.89;59.46;99125.53;5061516;28;4117;-68
2023/08/03 07:39:28;;;;;;;;;;;;;;;21.88;59.53;99129.88;5061682;28;3985;-68
2023/08/03 07:41:54;;;;;;;;;;;;;;;21.88;59.55;99126.97;5061689;28;4152;-68
2023/08/03 07:44:21;;;;;;;;;;;;;;;21.87;59.20;99129.13;5061615;28;4095;-68
2023/08/03 07:46:47;;;;;;;;;;;;;;;21.88;59.33;99124.09;5060663;28;5059;-69
2023/08/03 07:49:13;;;;;;;;;;;;;;;21.88;59.50;99124.09;5061280;28;4260;-68
2023/08/03 07:51:40;;;;;;;;;;;;;;;21.89;59.31;99128.41;5059742;28;4069;-67
2023/08/03 07:54:06;;;;;;;;;;;;;;;21.88;59.32;99121.22;5061662;28;4033;-67
2023/08/03 07:56:33;;;;;;;;;;;;;;;21.88;59.06;99124.09;5060174;28;4028;-68
2023/08/03 07:59:00;;;;;;;;;;;;;;;21.87;59.24;99129.13;5061224;28;4009;-68
2023/08/03 08:01:26;;;;;;;;;;;;;;;21.88;59.13;99124.09;5060722;28;4039;-68
2023/08/03 08:03:53;;;;;;;;;;;;;;;21.88;59.35;99118.34;5061314;28;4148;-68
2023/08/03 08:06:20;;;;;;;;;;;;;;;21.88;59.30;99129.88;5061628;28;4049;-68
2023/08/03 08:08:47;;;;;;;;;;;;;;;21.88;59.23;99141.38;5061415;28;4156;-68
2023/08/03 08:11:14;;;;;;;;;;;;;;;21.88;59.39;99130.59;5060429;28;4157;-68
2023/08/03 08:13:41;;;;;;;;;;;;;;;21.89;59.38;99137.06;5059158;28;4563;-68
2023/08/03 08:16:08;;;;;;;;;;;;;;;21.89;58.99;99134.19;5061592;28;4138;-68
2023/08/03 08:18:34;;;;;;;;;;;;;;;21.89;59.42;99148.59;5059425;28;3983;-67
2023/08/03 08:21:02;;;;;;;;;;;;;;;21.88;59.23;99142.09;5060643;28;4547;-68
2023/08/03 08:23:28;;;;;;;;;;;;;;;21.89;59.08;99134.19;5060499;28;4123;-68
2023/08/03 08:25:55;;;;;;;;;;;;;;;21.88;59.19;99135.63;5060591;28;3927;-68
2023/08/03 08:28:21;;;;;;;;;;;;;;;21.88;59.13;99152.91;5060786;28;4051;-68
2023/08/03 08:30:48;;;;;;;;;;;;;;;21.88;59.40;99156.50;5059884;28;4340;-69
2023/08/03 08:33:15;;;;;;;;;;;;;;;21.89;59.08;99148.59;5060408;28;4219;-68
2023/08/03 08:35:41;;;;;;;;;;;;;;;21.88;59.21;99135.63;5060285;28;4104;-68
2023/08/03 08:38:11;;;;;;;;;;;;;;;21.85;59.19;99143.53;5060072;28;4106;-68
2023/08/03 08:40:38;;;;;;;;;;;;;;;21.88;59.30;99142.09;5060268;28;4954;-68
2023/08/03 08:43:04;;;;;;;;;;;;;;;21.89;59.10;99139.94;5059714;28;4188;-68
2023/08/03 08:45:31;;;;;;;;;;;;;;;21.88;59.14;99141.38;5059545;28;4190;-68
2023/08/03 08:47:57;;;;;;;;;;;;;;;21.89;58.99;99142.84;5059574;28;4066;-68
2023/08/03 08:50:26;;;;;;;;;;;;;;;21.89;59.15;99160.84;5060698;28;4546;-68
2023/08/03 08:52:57;;;;;;;;;;;;;;;21.88;59.08;99170.91;5059207;28;4089;-68
2023/08/03 08:55:27;;;;;;;;;;;;;;;21.86;59.20;99173.06;5059737;28;4542;-68
2023/08/03 08:57:56;;;;;;;;;;;;;;;21.90;59.32;99167.34;5059623;28;4595;-68
2023/08/03 09:00:26;;;;;;;;;;;;;;;21.89;59.24;99160.84;5060733;28;4753;-68
2023/08/03 09:02:53;;;;;;;;;;;;;;;21.88;59.17;99168.03;5058967;28;4834;-68
2023/08/03 09:05:20;;;;;;;;;;;;;;;21.89;59.02;99160.13;5060395;28;3963;-68
2023/08/03 09:08:07;;;;;;;;;;;;;;;21.89;59.08;99160.13;5060061;28;4164;-68
2023/08/03 09:11:06;;;;;;;;;;;;;;;21.88;59.38;99167.31;5059949;28;4274;-66
2023/08/03 09:13:35;;;;;;;;;;;;;;;21.88;59.34;99170.19;5015469;28;4156;-68
2023/08/03 09:16:01;;;;;;;;;;;;;;;21.88;59.19;99168.03;5060276;28;4051;-68
2023/08/03 09:18:29;;;;;;;;;;;;;;;21.90;59.00;99173.13;5058678;28;4450;-68
2023/08/03 09:21:08;;;;;;;;;;;;;;;21.89;59.35;99186.06;5059563;28;4084;-68
2023/08/03 09:23:37;;;;;;;;;;;;;;;21.89;59.04;99183.16;5059785;28;4100;-68
2023/08/03 09:26:07;;;;;;;;;;;;;;;21.89;59.08;99178.13;5060577;28;4407;-68
2023/08/03 09:28:40;;;;;;;;;;;;;;;21.90;59.13;99181.75;5060172;28;3911;-68
2023/08/03 09:31:07;;;;;;;;;;;;;;;21.90;59.12;99196.88;5059336;28;4076;-68
2023/08/03 09:33:34;;;;;;;;;;;;;;;21.90;59.34;99202.66;5058819;28;4352;-69
2023/08/03 09:36:01;;;;;;;;;;;;;;;21.89;59.29;99195.41;5059134;28;4151;-68
2023/08/03 09:38:27;;;;;;;;;;;;;;;21.90;58.91;99196.16;5059489;28;4186;-68
2023/08/03 09:40:53;;;;;;;;;;;;;;;21.89;59.00;99206.94;5058700;28;4018;-68
2023/08/03 09:43:20;;;;;;;;;;;;;;;21.90;59.32;99204.81;5060120;28;4184;-69
2023/08/03 09:45:49;;;;;;;;;;;;;;;21.90;58.95;99196.16;5034203;28;4025;-68
2023/08/03 09:48:15;;;;;;;;;;;;;;;21.90;59.34;99199.75;5060224;28;4033;-68
2023/08/03 09:50:42;;;;;;;;;;;;;;;21.91;59.14;99200.50;5030832;28;4625;-68
2023/08/03 09:53:10;;;;;;;;;;;;;;;21.90;59.19;99199.03;5041577;28;4148;-68
2023/08/03 09:55:41;;;;;;;;;;;;;;;21.90;59.02;99201.94;5030625;28;4115;-68
2023/08/03 09:58:09;;;;;;;;;;;;;;;21.90;58.95;99202.66;5030897;28;4042;-68
2023/08/03 10:00:35;;;;;;;;;;;;;;;21.90;59.10;99196.16;5058829;28;4680;-68
2023/08/03 10:03:09;;;;;;;;;;;;;;;21.91;59.25;99186.09;5032013;28;4343;-68
2023/08/03 10:05:37;;;;;;;;;;;;;;;21.91;58.99;99186.09;5058493;28;4120;-68
2023/08/03 10:08:05;;;;;;;;;;;;;;;21.90;59.25;99179.59;5058857;28;4096;-68
2023/08/03 10:10:35;;;;;;;;;;;;;;;21.91;59.31;99195.44;5059144;28;4078;-68
2023/08/03 10:13:02;;;;;;;;;;;;;;;21.91;59.09;99203.38;5060116;28;4037;-68
2023/08/03 10:15:28;;;;;;;;;;;;;;;21.91;59.30;99203.38;5059560;28;4153;-68
2023/08/03 10:17:55;;;;;;;;;;;;;;;21.91;59.01;99203.38;5032865;28;4253;-68
2023/08/03 10:20:21;;;;;;;;;;;;;;;21.91;59.14;99197.59;5059743;28;4379;-68
2023/08/03 10:23:07;;;;;;;;;;;;;;;21.91;59.05;99194.72;5059290;28;4136;-68
2023/08/03 10:25:34;;;;;;;;;;;;;;;21.91;59.00;99197.59;5058592;28;4132;-67
2023/08/03 10:28:09;;;;;;;;;;;;;;;21.91;59.00;99206.25;5032088;28;4166;-68
2023/08/03 10:30:55;;;;;;;;;;;;;;;21.90;59.13;99208.41;5058696;28;4167;-68
2023/08/03 10:33:21;;;;;;;;;;;;;;;21.90;58.90;99196.88;5059177;28;4233;-69
2023/08/03 10:35:49;;;;;;;;;;;;;;;21.91;59.23;99197.59;5059558;28;4120;-69
2023/08/03 10:38:19;;;;;;;;;;;;;;;21.90;59.08;99199.75;5062835;28;4448;-68
2023/08/03 10:40:46;;;;;;;;;;;;;;;21.91;58.96;99200.50;5062107;28;4007;-67
2023/08/03 10:43:12;;;;;;;;;;;;;;;21.92;58.99;99193.28;5063383;28;4117;-68
2023/08/03 10:45:40;;;;;;;;;;;;;;;21.91;59.21;99203.38;5062247;28;4144;-67
2023/08/03 10:48:25;;;;;;;;;;;;;;;21.91;59.28;99204.09;5062202;28;4042;-68
2023/08/03 10:50:56;;;;;;;;;;;;;;;21.91;59.10;99214.91;5062035;28;4005;-67
2023/08/03 10:53:22;;;;;;;;;;;;;;;21.92;58.89;99216.34;5045055;28;4080;-68
2023/08/03 10:55:50;;;;;;;;;;;;;;;21.91;59.25;99226.41;5062051;28;4501;-70
2023/08/03 10:58:17;;;;;;;;;;;;;;;21.91;58.90;99221.38;5064462;28;4048;-68
2023/08/03 11:00:43;;;;;;;;;;;;;;;21.91;59.37;99209.13;5061966;28;4502;-67
2023/08/03 11:03:10;;;;;;;;;;;;;;;21.92;59.15;99216.34;5063910;28;4161;-67
2023/08/03 11:05:37;;;;;;;;;;;;;;;21.91;59.03;99209.84;5061887;28;4381;-67
2023/08/03 11:08:03;;;;;;;;;;;;;;;21.92;58.85;99210.56;5062946;28;3986;-68
2023/08/03 11:10:30;;;;;;;;;;;;;;;21.92;58.88;99211.31;5044862;28;4223;-68
2023/08/03 11:12:56;;;;;;;;;;;;;;;21.91;59.43;99220.66;5038327;28;4131;-68
2023/08/03 11:15:22;;;;;;;;;;;;;;;21.91;59.16;99218.50;5061221;28;4312;-68
2023/08/03 11:17:49;;;;;;;;;;;;;;;21.92;59.12;99222.09;5062274;28;4179;-67
2023/08/03 11:20:17;;;;;;;;;;;;;;;21.93;58.94;99220.69;5062260;28;4134;-68
2023/08/03 11:22:43;;;;;;;;;;;;;;;21.92;58.97;99231.50;5060513;28;4156;-67
2023/08/03 11:25:10;;;;;;;;;;;;;;;21.92;59.09;99227.88;5062175;28;5145;-68
2023/08/03 11:27:39;;;;;;;;;;;;;;;21.91;58.95;99230.03;5061358;28;4139;-67
2023/08/03 11:30:06;;;;;;;;;;;;;;;21.92;58.98;99245.16;5062959;28;4614;-67
2023/08/03 11:32:33;;;;;;;;;;;;;;;21.92;59.33;99224.97;5062129;28;3914;-68
2023/08/03 11:35:00;;;;;;;;;;;;;;;21.92;59.00;99227.88;5061791;28;4650;-68
2023/08/03 11:37:27;;;;;;;;;;;;;;;21.92;58.96;99224.97;5036990;28;4486;-68
2023/08/03 11:39:53;;;;;;;;;;;;;;;21.91;59.11;99224.25;5061566;28;4497;-67
2023/08/03 11:42:20;;;;;;;;;;;;;;;21.92;59.26;99222.09;5061681;28;4155;-68
2023/08/03 11:44:46;;;;;;;;;;;;;;;21.92;59.28;99233.63;5061393;28;4035;-67
2023/08/03 11:47:22;;;;;;;;;;;;;;;21.93;59.11;99223.56;5062499;28;3982;-68
2023/08/03 11:49:48;;;;;;;;;;;;;;;21.92;59.06;99228.63;5033703;28;3922;-68
2023/08/03 11:52:18;;;;;;;;;;;;;;;21.93;59.11;99235.09;5061432;28;3898;-68
2023/08/03 11:54:45;;;;;;;;;;;;;;;21.93;59.29;99230.06;5060228;28;4054;-68
2023/08/03 12:00:04;;;;;;;;;;;;;;;21.92;59.06;99234.38;5030340;28;4109;-64
2023/08/03 12:02:38;;;;;;;;;;;;;;;21.93;58.96;99246.63;5060489;28;4425;-65
2023/08/03 12:05:05;;;;;;;;;;;;;;;21.93;58.99;99246.63;5062502;28;3997;-63
2023/08/03 12:07:34;;;;;;;;;;;;;;;21.92;59.20;99253.81;5060379;28;4368;-64
2023/08/03 12:10:08;;;;;;;;;;;;;;;21.93;58.97;99255.28;5035023;28;4193;-63
2023/08/03 12:12:34;;;;;;;;;;;;;;;21.93;58.99;99264.63;5060510;28;4097;-64
2023/08/03 12:15:05;;;;;;;;;;;;;;;21.92;59.16;99263.19;5035005;28;4561;-64
2023/08/03 12:17:32;;;;;;;;;;;;;;;21.94;58.87;99271.88;5060878;28;4387;-64
2023/08/03 12:19:58;;;;;;;;;;;;;;;21.94;58.69;99285.53;5060554;28;4303;-64
2023/08/03 12:22:25;;;;;;;;;;;;;;;21.94;59.04;99288.41;5061030;28;4033;-63
2023/08/03 12:24:52;;;;;;;;;;;;;;;21.94;58.98;99276.88;5060660;28;4446;-64
2023/08/03 12:27:18;;;;;;;;;;;;;;;21.95;58.95;99266.84;5060020;28;4087;-63
2023/08/03 12:29:49;;;;;;;;;;;;;;;21.93;58.87;99270.41;5061299;28;4117;-63
2023/08/03 12:32:15;;;;;;;;;;;;;;;21.94;58.95;99283.41;5060719;28;4003;-64
2023/08/03 12:34:41;;;;;;;;;;;;;;;21.93;58.80;99304.25;5060356;28;4141;-64
2023/08/03 12:37:08;;;;;;;;;;;;;;;21.95;59.04;99315.81;5061872;28;4541;-64
2023/08/03 12:39:34;;;;;;;;;;;;;;;21.95;59.41;99318.69;5060564;28;4150;-64
2023/08/03 12:42:01;;;;;;;;;;;;;;;21.95;59.24;99336.00;5060131;28;4271;-63
2023/08/03 12:44:27;;;;;;;;;;;;;;;21.95;59.09;99336.00;5062151;28;4118;-63
2023/08/03 12:46:54;;;;;;;;;;;;;;;21.95;58.90;99348.25;5059920;28;4275;-64
2023/08/03 12:49:21;;;;;;;;;;;;;;;21.95;59.29;99347.53;5059126;28;4161;-64
2023/08/03 12:51:47;;;;;;;;;;;;;;;21.95;59.15;99359.03;5059177;28;4141;-63
2023/08/03 12:54:14;;;;;;;;;;;;;;;21.95;59.21;99347.53;5060600;28;4001;-64
2023/08/03 12:56:40;;;;;;;;;;;;;;;21.95;59.20;99342.47;5060219;28;5211;-64
2023/08/03 12:59:07;;;;;;;;;;;;;;;21.95;59.07;99344.63;5061690;28;4163;-64
2023/08/03 13:01:33;;;;;;;;;;;;;;;21.95;58.79;99348.25;5059225;28;4108;-64